Time;durP1;ratioP1;P1;durP2;ratioP2;P2;SDS_P1;SDS_P2;PMS_P1;PMS_P2;Temp;Humidity;BMP_temperature;BMP_pressure;BME280_temperature;BME280_humidity;BME280_pressure;Samples;Min_cycle;Max_cycle;Signal;HPM_P1;HPM_P2
2022/09/06 00:02:06;;;;;;;5.50;1.50;;;;;;;13.06;49.48;101418.19;103824;1283;138585;-86
2022/09/06 00:04:34;;;;;;;4.50;1.50;;;;;;;13.02;49.57;101415.59;103841;1284;95215;-85
2022/09/06 00:07:05;;;;;;;5.20;1.60;;;;;;;12.98;49.77;101415.12;103802;1284;95607;-85
2022/09/06 00:09:33;;;;;;;5.00;1.30;;;;;;;12.99;49.78;101414.75;103760;1284;138645;-85
2022/09/06 00:12:22;;;;;;;7.10;1.40;;;;;;;12.98;49.84;101410.50;103636;1285;99773;-84
2022/09/06 00:15:15;;;;;;;5.00;1.50;;;;;;;12.95;49.88;101410.04;103696;1284;138365;-84
2022/09/06 00:17:45;;;;;;;4.60;1.50;;;;;;;12.88;49.84;101412.64;103792;1284;96265;-84
2022/09/06 00:20:15;;;;;;;5.10;1.60;;;;;;;12.83;49.73;101420.05;103838;1284;138961;-85
2022/09/06 00:22:43;;;;;;;4.80;1.20;;;;;;;12.81;49.89;101419.73;103964;1284;110268;-86
2022/09/06 00:25:11;;;;;;;4.60;1.40;;;;;;;12.78;50.03;101415.88;103782;1284;98424;-86
2022/09/06 00:28:03;;;;;;;5.40;1.60;;;;;;;12.80;50.16;101417.42;103710;1284;138816;-85
2022/09/06 00:30:32;;;;;;;6.20;1.50;;;;;;;12.77;50.13;101418.56;103658;1284;96245;-85
2022/09/06 00:33:00;;;;;;;4.90;1.70;;;;;;;12.75;50.58;101419.14;103488;1284;139191;-87
2022/09/06 00:35:28;;;;;;;4.50;1.50;;;;;;;12.72;50.49;101417.05;103893;1284;108942;-86
2022/09/06 00:38:16;;;;;;;4.60;1.40;;;;;;;12.67;50.19;101419.66;103743;1284;138755;-84
2022/09/06 00:40:44;;;;;;;5.30;1.40;;;;;;;12.62;50.52;101418.32;103809;1284;107952;-85
2022/09/06 00:43:12;;;;;;;4.40;1.40;;;;;;;12.59;50.88;101416.05;103856;1284;95820;-84
2022/09/06 00:46:02;;;;;;;4.60;1.50;;;;;;;12.61;50.75;101414.23;103738;1284;138868;-86
2022/09/06 00:48:54;;;;;;;4.10;1.30;;;;;;;12.61;50.80;101414.23;103697;1284;110991;-85
2022/09/06 00:51:42;;;;;;;4.40;1.40;;;;;;;12.57;50.68;101413.77;103687;1284;138821;-84
2022/09/06 00:54:10;;;;;;;4.40;1.40;;;;;;;12.54;50.84;101416.68;103584;1284;109273;-85
2022/09/06 00:56:59;;;;;;;5.40;1.60;;;;;;;12.48;50.99;101418.38;103611;1284;139947;-85
2022/09/06 00:59:30;;;;;;;4.60;1.50;;;;;;;12.46;50.98;101419.31;103987;1284;95663;-85
2022/09/06 01:01:58;;;;;;;4.30;1.50;;;;;;;12.47;51.00;101414.48;103940;1284;108859;-85
2022/09/06 01:04:28;;;;;;;5.70;1.50;;;;;;;12.47;51.12;101420.54;103723;1284;139236;-86
2022/09/06 01:07:12;;;;;;;5.30;1.50;;;;;;;12.47;51.36;101410.38;103840;1284;107467;-85
2022/09/06 01:10:06;;;;;;;5.80;1.40;;;;;;;12.46;51.44;101407.02;103899;1284;138790;-86
2022/09/06 01:12:48;;;;;;;4.20;1.40;;;;;;;12.40;50.93;101401.60;103740;1284;95332;-85
2022/09/06 01:15:18;;;;;;;5.10;1.70;;;;;;;12.37;51.19;101398.64;103882;1284;138263;-86
2022/09/06 01:18:09;;;;;;;5.70;1.50;;;;;;;12.32;50.97;101403.70;104162;1284;98285;-85
2022/09/06 01:20:56;;;;;;;4.70;1.50;;;;;;;12.26;50.99;101402.02;104045;1284;138638;-86
2022/09/06 01:23:50;;;;;;;3.90;1.40;;;;;;;12.26;51.41;101400.96;103910;1284;95302;-86
2022/09/06 01:26:27;;;;;;;3.90;1.40;;;;;;;12.25;51.52;101401.15;103744;1285;138718;-85
2022/09/06 01:28:56;;;;;;;5.30;1.50;;;;;;;12.23;51.38;101404.38;103972;1285;108811;-86
2022/09/06 01:31:24;;;;;;;5.20;1.50;;;;;;;12.23;51.54;101407.08;103718;1284;99904;-84
2022/09/06 01:34:02;;;;;;;4.10;1.30;;;;;;;12.23;51.74;101408.30;103904;1284;138536;-85
2022/09/06 01:36:51;;;;;;;4.20;1.40;;;;;;;12.20;51.74;101403.54;103804;1284;95690;-85
2022/09/06 01:39:57;;;;;;;4.40;1.40;;;;;;;12.20;51.89;101402.30;103748;1284;139217;-87
2022/09/06 01:42:49;;;;;;;4.60;1.40;;;;;;;12.15;51.64;101412.54;103930;1284;110446;-84
2022/09/06 01:45:28;;;;;;;4.50;1.50;;;;;;;12.10;51.88;101409.95;103736;1284;139367;-86
2022/09/06 01:47:59;;;;;;;5.10;1.60;;;;;;;12.09;51.72;101409.08;103857;1284;109799;-86
2022/09/06 01:51:09;;;;;;;4.80;1.50;;;;;;;12.08;51.79;101409.45;103610;1285;138866;-86
2022/09/06 01:53:57;;;;;;;5.30;1.50;;;;;;;12.12;51.92;101407.60;103839;1284;95717;-86
2022/09/06 01:57:02;;;;;;;4.50;1.40;;;;;;;12.09;51.85;101409.98;103664;1284;139185;-86
2022/09/06 01:59:49;;;;;;;5.40;1.70;;;;;;;12.08;52.27;101412.14;103877;1284;98374;-86
2022/09/06 02:02:42;;;;;;;4.70;1.40;;;;;;;12.06;52.18;101415.52;103411;1285;139334;-86
2022/09/06 02:05:35;;;;;;;5.00;1.30;;;;;;;12.04;51.80;101408.80;103799;1284;95391;-86
2022/09/06 02:08:11;;;;;;;5.10;1.50;;;;;;;12.03;51.84;101412.20;103870;1284;95725;-85
2022/09/06 02:10:51;;;;;;;5.50;1.50;;;;;;;12.03;52.28;101412.54;103853;1285;108679;-85
2022/09/06 02:13:23;;;;;;;4.40;1.40;;;;;;;12.00;51.98;101409.21;103633;1287;98529;-86
2022/09/06 02:16:01;;;;;;;4.00;1.50;;;;;;;11.96;51.83;101406.79;103629;1285;140122;-86
2022/09/06 02:18:37;;;;;;;4.90;1.30;;;;;;;11.94;52.19;101406.10;103855;1284;95224;-86
2022/09/06 02:21:07;;;;;;;4.70;1.50;;;;;;;11.95;52.38;101408.40;103708;1284;138774;-87
2022/09/06 02:23:39;;;;;;;4.20;1.20;;;;;;;11.95;52.39;101407.86;103859;1284;108744;-85
2022/09/06 02:26:31;;;;;;;4.70;1.50;;;;;;;11.94;52.53;101409.82;103862;1284;98363;-85
2022/09/06 02:29:00;;;;;;;4.80;1.60;;;;;;;11.90;52.43;101408.09;103832;1284;109536;-86
2022/09/06 02:31:54;;;;;;;4.70;1.50;;;;;;;11.89;52.43;101408.98;103869;1284;95150;-85
2022/09/06 02:34:44;;;;;;;4.80;1.40;;;;;;;11.85;52.75;101407.98;103747;1285;95710;-85
2022/09/06 02:37:33;;;;;;;4.00;1.50;;;;;;;11.82;52.72;101409.64;103811;1285;108714;-85
2022/09/06 02:40:23;;;;;;;4.80;1.30;;;;;;;11.81;52.90;101410.02;103799;1284;139528;-85
2022/09/06 02:42:53;;;;;;;4.30;1.30;;;;;;;11.76;52.52;101411.86;103827;1284;108347;-86
2022/09/06 02:45:24;;;;;;;4.90;1.40;;;;;;;11.72;52.39;101410.15;103538;1285;138554;-86
2022/09/06 02:47:59;;;;;;;4.50;1.40;;;;;;;11.70;52.61;101413.55;104051;1284;95171;-86
2022/09/06 02:50:27;;;;;;;5.60;1.60;;;;;;;11.69;52.82;101413.75;103778;1284;138487;-84
2022/09/06 02:53:08;;;;;;;4.60;1.50;;;;;;;11.68;53.03;101410.20;103851;1284;99115;-86
2022/09/06 02:55:37;;;;;;;6.00;1.40;;;;;;;11.68;52.83;101407.54;103856;1284;107869;-86
2022/09/06 02:58:25;;;;;;;5.60;1.30;;;;;;;11.73;52.64;101409.60;103704;1284;138945;-87
2022/09/06 03:00:54;;;;;;;4.60;1.40;;;;;;;11.78;53.22;101409.17;103757;1284;95185;-86
2022/09/06 03:03:23;;;;;;;6.10;1.60;;;;;;;11.80;53.25;101410.02;103740;1284;139244;-86
2022/09/06 03:05:53;;;;;;;5.60;1.60;;;;;;;11.80;53.10;101408.61;103873;1284;98397;-86
2022/09/06 03:08:42;;;;;;;4.40;1.40;;;;;;;11.80;53.29;101403.45;103565;1284;138638;-86
2022/09/06 03:11:09;;;;;;;5.20;1.40;;;;;;;11.77;53.14;101399.93;103885;1284;95922;-86
2022/09/06 03:13:37;;;;;;;5.30;1.50;;;;;;;11.75;53.41;101395.88;103890;1284;95678;-85
2022/09/06 03:16:05;;;;;;;5.20;1.60;;;;;;;11.74;53.09;101394.64;103784;1284;139443;-86
2022/09/06 03:18:34;;;;;;;4.90;1.50;;;;;;;11.71;53.37;101396.11;103585;1284;99277;-84
2022/09/06 03:21:22;;;;;;;4.90;1.50;;;;;;;11.70;53.29;101400.02;103790;1284;138569;-85
2022/09/06 03:23:50;;;;;;;11.20;2.00;;;;;;;11.71;53.34;101398.41;103773;1284;95688;-85
2022/09/06 03:26:18;;;;;;;4.20;1.30;;;;;;;11.73;53.50;101402.66;103742;1284;138743;-86
2022/09/06 03:28:46;;;;;;;5.30;1.50;;;;;;;11.74;53.60;101396.59;103939;1284;109852;-84
2022/09/06 03:31:16;;;;;;;5.90;1.50;;;;;;;11.73;53.19;101400.70;103826;1284;98904;-84
2022/09/06 03:34:05;;;;;;;6.90;1.60;;;;;;;11.75;53.20;101400.14;103604;1285;138913;-86
2022/09/06 03:36:37;;;;;;;5.10;1.60;;;;;;;11.77;53.36;101401.72;103837;1284;95810;-85
2022/09/06 03:39:06;;;;;;;5.20;1.60;;;;;;;11.78;53.39;101402.41;103761;1284;138373;-86
2022/09/06 03:41:34;;;;;;;6.30;1.60;;;;;;;11.75;53.58;101402.98;103544;1288;110363;-86
2022/09/06 03:44:05;;;;;;;6.40;1.60;;;;;;;11.72;53.69;101400.89;103926;1284;98378;-85
2022/09/06 03:46:33;;;;;;;4.90;1.40;;;;;;;11.70;53.78;101400.92;103718;1284;138374;-85
2022/09/06 03:49:01;;;;;;;5.90;1.70;;;;;;;11.69;53.84;101399.16;103881;1284;97168;-85
2022/09/06 03:51:31;;;;;;;6.30;1.70;;;;;;;11.69;53.95;101397.20;103634;1284;139760;-85
2022/09/06 03:54:19;;;;;;;4.70;1.70;;;;;;;11.66;53.78;101399.02;103830;1284;106965;-84
2022/09/06 03:56:47;;;;;;;4.30;1.40;;;;;;;11.65;54.26;101394.23;103764;1285;139225;-83
2022/09/06 03:59:36;;;;;;;5.10;1.60;;;;;;;11.65;54.26;101393.52;103771;1285;107825;-82
2022/09/06 04:02:25;;;;;;;5.80;1.80;;;;;;;11.67;54.18;101391.19;103859;1284;138903;-84
2022/09/06 04:05:15;;;;;;;6.00;1.70;;;;;;;11.63;54.00;101391.59;104034;1284;95686;-85
2022/09/06 04:07:43;;;;;;;5.30;1.60;;;;;;;11.63;53.88;101388.23;104050;1284;108695;-85
2022/09/06 04:10:11;;;;;;;6.20;1.80;;;;;;;11.64;53.99;101384.11;103680;1284;138929;-84
2022/09/06 04:13:01;;;;;;;4.60;1.60;;;;;;;11.68;53.84;101386.55;104088;1285;106831;-83
2022/09/06 04:15:52;;;;;;;5.70;1.60;;;;;;;11.71;54.21;101385.08;103607;1284;139675;-84
2022/09/06 04:18:28;;;;;;;6.60;2.00;;;;;;;11.72;53.97;101385.06;103971;1284;95236;-85
2022/09/06 04:21:17;;;;;;;6.20;1.80;;;;;;;11.71;53.94;101387.58;103922;1284;138323;-86
2022/09/06 04:24:08;;;;;;;5.70;1.70;;;;;;;11.70;53.81;101389.54;104077;1284;98409;-85
2022/09/06 04:26:36;;;;;;;6.50;1.50;;;;;;;11.70;54.11;101389.54;103950;1284;138594;-83
2022/09/06 04:29:24;;;;;;;6.80;1.80;;;;;;;11.68;54.14;101389.75;104037;1284;95230;-85
2022/09/06 04:32:13;;;;;;;5.90;1.80;;;;;;;11.73;54.20;101390.56;103967;1284;95350;-84
2022/09/06 04:34:41;;;;;;;6.20;1.80;;;;;;;11.74;54.13;101389.30;104176;1284;108719;-83
2022/09/06 04:37:09;;;;;;;5.50;2.00;;;;;;;11.79;54.29;101397.23;103914;1287;98385;-85
2022/09/06 04:39:37;;;;;;;5.70;1.60;;;;;;;11.85;54.45;101398.21;103821;1287;139089;-84
2022/09/06 04:42:05;;;;;;;5.90;2.00;;;;;;;11.84;54.38;101401.60;103946;1284;95539;-84
2022/09/06 04:44:53;;;;;;;7.50;1.70;;;;;;;11.83;54.21;101401.79;103994;1285;139538;-84
2022/09/06 04:47:42;;;;;;;9.60;4.30;;;;;;;11.85;54.28;101397.84;104020;1284;111770;-84
2022/09/06 04:50:13;;;;;;;5.70;1.50;;;;;;;11.89;54.35;101398.49;103996;1284;139532;-87
2022/09/06 04:52:45;;;;;;;5.60;1.80;;;;;;;11.91;54.09;101403.10;104014;1284;109595;-85
2022/09/06 04:55:34;;;;;;;6.80;1.80;;;;;;;11.97;54.25;101402.86;103553;1288;95258;-84
2022/09/06 04:58:23;;;;;;;5.30;1.60;;;;;;;12.02;54.28;101399.05;103538;1290;139136;-83
2022/09/06 05:01:55;;;;;;;6.20;1.50;;;;;;;12.02;53.65;101395.66;103487;1287;108714;-84
2022/09/06 05:04:43;;;;;;;6.00;1.60;;;;;;;12.01;54.07;101396.55;103714;1290;98512;-85
2022/09/06 05:07:31;;;;;;;9.40;1.70;;;;;;;12.02;53.63;101392.98;103557;1290;107801;-83
2022/09/06 05:10:04;;;;;;;6.30;1.50;;;;;;;12.04;53.61;101395.98;103483;1290;138814;-83
2022/09/06 05:13:12;;;;;;;4.60;1.70;;;;;;;12.09;53.84;101398.38;103569;1287;96737;-84
2022/09/06 05:16:06;;;;;;;4.60;1.40;;;;;;;12.14;53.79;101393.34;104087;1284;138519;-83
2022/09/06 05:18:56;;;;;;;8.00;1.80;;;;;;;12.15;53.15;101392.60;103998;1284;99931;-84
2022/09/06 05:22:05;;;;;;;7.60;1.70;;;;;;;12.23;53.32;101391.04;104075;1284;139368;-83
2022/09/06 05:24:55;;;;;;;5.90;1.60;;;;;;;12.29;53.27;101390.92;104148;1284;95277;-84
2022/09/06 05:27:24;;;;;;;6.60;2.00;;;;;;;12.31;52.91;101387.52;104159;1284;138877;-83
2022/09/06 05:30:13;;;;;;;6.10;1.60;;;;;;;12.36;52.54;101387.61;104123;1284;110824;-85
2022/09/06 05:33:01;;;;;;;7.10;1.70;;;;;;;12.40;52.24;101385.58;103595;1284;138779;-84
2022/09/06 05:35:49;;;;;;;6.90;1.80;;;;;;;12.45;52.35;101387.10;103740;1284;109682;-85
2022/09/06 05:38:17;;;;;;;7.70;1.70;;;;;;;12.50;52.13;101384.69;103961;1284;138508;-85
2022/09/06 05:41:26;;;;;;;6.30;1.70;;;;;;;12.55;52.38;101387.27;104251;1284;95166;-85
2022/09/06 05:43:54;;;;;;;6.00;1.60;;;;;;;12.61;51.86;101388.75;104162;1285;109363;-85
2022/09/06 05:46:25;;;;;;;6.30;1.70;;;;;;;12.66;51.87;101388.30;103855;1287;139101;-83
2022/09/06 05:48:58;;;;;;;6.30;1.70;;;;;;;12.72;51.64;101393.38;103980;1284;109262;-83
2022/09/06 05:51:27;;;;;;;6.60;1.70;;;;;;;12.79;51.60;101392.34;103869;1287;138268;-82
2022/09/06 05:54:16;;;;;;;8.60;1.80;;;;;;;12.87;51.47;101391.83;103803;1285;95768;-85
2022/09/06 05:57:01;;;;;;;6.40;1.70;;;;;;;12.95;51.51;101389.16;103713;1285;138831;-84
2022/09/06 05:59:28;;;;;;;8.20;1.50;;;;;;;13.02;51.19;101385.45;103790;1284;98427;-84
2022/09/06 06:01:58;;;;;;;8.60;1.70;;;;;;;13.09;50.89;101391.56;103684;1285;107728;-83
2022/09/06 06:04:47;;;;;;;6.00;1.60;;;;;;;13.14;50.22;101391.98;103823;1284;95328;-84
2022/09/06 06:07:36;;;;;;;6.20;1.50;;;;;;;13.19;49.90;101389.19;103883;1284;95295;-82
2022/09/06 06:10:24;;;;;;;4.80;1.40;;;;;;;13.26;49.92;101386.92;103652;1284;140095;-83
2022/09/06 06:13:16;;;;;;;6.30;1.60;;;;;;;13.33;50.39;101389.43;103778;1284;98523;-85
2022/09/06 06:16:08;;;;;;;5.40;1.50;;;;;;;13.41;50.20;101386.10;103951;1284;138675;-85
2022/09/06 06:19:17;;;;;;;4.90;1.40;;;;;;;13.51;49.78;101389.05;104074;1284;95238;-82
2022/09/06 06:22:06;;;;;;;5.80;1.30;;;;;;;13.63;49.46;101393.80;103584;1285;138762;-82
2022/09/06 06:24:54;;;;;;;5.30;1.30;;;;;;;13.75;49.61;101396.02;103707;1285;110266;-82
2022/09/06 06:27:21;;;;;;;5.40;1.30;;;;;;;13.83;48.83;101395.29;103721;1284;138740;-84
2022/09/06 06:29:51;;;;;;;4.40;1.10;;;;;;;13.93;48.09;101399.16;103929;1283;107806;-83
2022/09/06 06:32:39;;;;;;;4.60;1.20;;;;;;;13.99;47.26;101393.85;104219;1284;139570;-83
2022/09/06 06:35:12;;;;;;;5.10;1.20;;;;;;;14.04;46.92;101392.81;104059;1286;96104;-84
2022/09/06 06:37:41;;;;;;;4.30;1.20;;;;;;;14.13;46.40;101390.64;104198;1287;108539;-82
2022/09/06 06:40:09;;;;;;;4.30;1.10;;;;;;;14.21;47.71;101385.79;103976;1284;138863;-82
2022/09/06 06:42:37;;;;;;;5.00;1.00;;;;;;;14.28;47.39;101387.95;104229;1284;109261;-83
2022/09/06 06:45:06;;;;;;;6.70;1.30;;;;;;;14.34;46.43;101388.33;103902;1284;139271;-83
2022/09/06 06:47:34;;;;;;;3.60;1.10;;;;;;;14.41;46.46;101392.08;103948;1287;95251;-82
2022/09/06 06:50:01;;;;;;;4.90;1.20;;;;;;;14.47;46.59;101395.11;103830;1284;108714;-85
2022/09/06 06:52:30;;;;;;;4.90;1.00;;;;;;;14.55;46.91;101400.80;103664;1284;138500;-84
2022/09/06 06:55:19;;;;;;;4.30;1.20;;;;;;;14.62;46.02;101398.67;103797;1284;107803;-83
2022/09/06 06:57:47;;;;;;;4.70;1.00;;;;;;;14.66;45.80;101400.19;103640;1284;138662;-84
2022/09/06 07:00:16;;;;;;;5.60;1.20;;;;;;;14.73;46.22;101404.65;103836;1284;95258;-81
2022/09/06 07:02:44;;;;;;;5.40;1.10;;;;;;;14.83;47.26;101403.84;103837;1284;138345;-83
2022/09/06 07:05:14;;;;;;;6.30;1.40;;;;;;;14.93;45.77;101405.90;103807;1284;99888;-83
2022/09/06 07:08:03;;;;;;;4.30;1.20;;;;;;;15.02;45.55;101407.06;103747;1284;107788;-85
2022/09/06 07:10:32;;;;;;;5.20;1.10;;;;;;;15.14;45.78;101406.17;103701;1284;138426;-82
2022/09/06 07:13:01;;;;;;;6.40;1.30;;;;;;;15.20;44.53;101408.33;103815;1284;95452;-83
2022/09/06 07:15:28;;;;;;;6.90;1.30;;;;;;;15.26;44.87;101411.91;103702;1286;138777;-83
2022/09/06 07:17:57;;;;;;;5.10;1.20;;;;;;;15.35;44.96;101406.80;103857;1284;98658;-84
2022/09/06 07:20:25;;;;;;;5.40;1.10;;;;;;;15.47;44.82;101405.56;103688;1284;138929;-83
2022/09/06 07:23:07;;;;;;;4.70;1.00;;;;;;;15.51;43.42;101408.46;103761;1284;95226;-83
2022/09/06 07:25:54;;;;;;;5.10;1.10;;;;;;;15.62;44.14;101405.83;103898;1284;96173;-85
2022/09/06 07:28:25;;;;;;;5.80;1.00;;;;;;;15.75;43.35;101404.70;103769;1284;138937;-83
2022/09/06 07:30:54;;;;;;;4.90;1.10;;;;;;;15.84;43.23;101406.04;103770;1287;98326;-84
2022/09/06 07:33:43;;;;;;;5.50;0.80;;;;;;;15.93;42.82;101406.48;103811;1287;138488;-83
2022/09/06 07:36:31;;;;;;;3.70;0.80;;;;;;;16.04;41.76;101405.59;103914;1285;95674;-83
2022/09/06 07:39:19;;;;;;;4.20;0.90;;;;;;;16.14;42.09;101402.92;103892;1284;138667;-83
2022/09/06 07:41:48;;;;;;;3.50;0.80;;;;;;;16.19;41.73;101395.75;103554;1284;110169;-83
2022/09/06 07:44:16;;;;;;;5.40;0.80;;;;;;;16.27;41.71;101393.18;104078;1284;97404;-84
2022/09/06 07:46:44;;;;;;;5.40;1.00;;;;;;;16.40;41.52;101397.02;104079;1284;139512;-83
2022/09/06 07:49:20;;;;;;;4.80;1.10;;;;;;;16.52;41.40;101397.31;103857;1284;95296;-84
2022/09/06 07:51:52;;;;;;;5.60;1.20;;;;;;;16.63;40.87;101395.69;104032;1284;138564;-83
2022/09/06 07:54:21;;;;;;;4.80;0.80;;;;;;;16.72;39.82;101396.45;104137;1287;109749;-85
2022/09/06 07:57:29;;;;;;;4.60;0.80;;;;;;;16.80;40.05;101400.98;103823;1284;138902;-83
2022/09/06 07:59:59;;;;;;;3.60;0.90;;;;;;;16.89;39.46;101402.11;103964;1284;107927;-83
2022/09/06 08:02:48;;;;;;;2.70;0.70;;;;;;;17.02;39.65;101405.06;103701;1287;139282;-82
2022/09/06 08:05:31;;;;;;;3.60;1.00;;;;;;;17.15;39.53;101402.45;103744;1287;95452;-86
2022/09/06 08:08:19;;;;;;;3.80;0.80;;;;;;;17.24;37.78;101403.02;103623;1287;110047;-86
2022/09/06 08:11:07;;;;;;;2.60;0.50;;;;;;;17.36;38.43;101407.58;103908;1287;98426;-84
2022/09/06 08:13:36;;;;;;;4.30;0.80;;;;;;;17.47;37.25;101402.45;103873;1287;107828;-84
2022/09/06 08:16:12;;;;;;;3.80;0.80;;;;;;;17.59;37.84;101399.31;103586;1287;139972;-83
2022/09/06 08:19:04;;;;;;;4.60;0.80;;;;;;;17.77;38.50;101398.04;103872;1287;95436;-85
2022/09/06 08:22:13;;;;;;;3.80;0.90;;;;;;;17.91;37.80;101401.27;103543;1287;139865;-84
2022/09/06 08:24:43;;;;;;;3.60;0.80;;;;;;;17.98;36.99;101400.80;103771;1285;99937;-85
2022/09/06 08:27:11;;;;;;;3.40;0.90;;;;;;;18.04;36.55;101398.44;103776;1285;138732;-85
2022/09/06 08:29:59;;;;;;;3.10;0.80;;;;;;;18.15;36.37;101393.27;104602;1284;97032;-84
2022/09/06 08:32:51;;;;;;;3.10;0.80;;;;;;;18.21;35.91;101389.98;103928;1284;138273;-84
2022/09/06 08:35:58;;;;;;;2.30;0.60;;;;;;;18.43;36.29;101384.58;104068;1284;110544;-83
2022/09/06 08:38:48;;;;;;;3.80;0.90;;;;;;;18.61;35.94;101387.01;103642;1284;138897;-83
2022/09/06 08:41:22;;;;;;;3.20;0.70;;;;;;;18.78;35.65;101388.23;104139;1284;107812;-89
2022/09/06 08:43:55;;;;;;;2.80;0.70;;;;;;;18.85;34.10;101383.95;104332;1284;95753;-82
2022/09/06 08:46:55;;;;;;;3.40;0.90;;;;;;;18.86;35.15;101383.73;103709;1284;138368;-82
2022/09/06 08:49:51;;;;;;;2.80;0.70;;;;;;;18.94;35.40;101380.19;103736;1284;108898;-83
2022/09/06 08:53:10;;;;;;;2.50;0.60;;;;;;;19.10;34.36;101376.76;104064;1284;97165;-89
2022/09/06 08:55:58;;;;;;;4.60;0.70;;;;;;;19.08;33.60;101376.47;103950;1284;107083;-82
2022/09/06 08:58:30;;;;;;;3.20;0.60;;;;;;;19.17;34.59;101371.36;103949;1284;140377;-82
2022/09/06 09:01:16;;;;;;;2.60;0.60;;;;;;;19.26;34.06;101369.36;103807;1284;95173;-86
2022/09/06 09:03:46;;;;;;;3.40;0.90;;;;;;;19.30;33.98;101363.74;103542;1284;138635;-85
2022/09/06 09:07:04;;;;;;;2.90;0.70;;;;;;;19.43;34.63;101365.80;103691;1284;100216;-87
2022/09/06 09:09:34;;;;;;;2.90;0.60;;;;;;;19.82;32.10;101357.84;104481;1287;137706;-84
2022/09/06 09:12:26;;;;;;;3.00;0.80;;;;;;;20.66;31.13;101354.27;103834;1284;95267;-84
2022/09/06 09:15:36;;;;;;;4.30;0.80;;;;;;;22.19;29.77;101348.03;103896;1284;138733;-83
2022/09/06 09:18:33;;;;;;;2.00;0.60;;;;;;;24.52;28.15;101338.61;103986;1284;108742;-84
2022/09/06 09:21:05;;;;;;;3.80;0.70;;;;;;;26.40;24.60;101335.26;104193;1284;138739;-89
2022/09/06 09:23:41;;;;;;;3.50;0.70;;;;;;;27.47;23.34;101334.88;103808;1284;109781;-85
2022/09/06 09:26:46;;;;;;;3.90;0.50;;;;;;;29.06;22.52;101332.58;103753;1284;139725;-83
2022/09/06 09:29:53;;;;;;;1.80;0.60;;;;;;;30.70;20.97;101328.79;103723;1284;95247;-85
2022/09/06 09:33:19;;;;;;;2.80;0.60;;;;;;;32.08;19.05;101330.30;104109;1284;138931;-89
2022/09/06 09:36:12;;;;;;;3.50;0.80;;;;;;;32.20;17.67;101327.66;104184;1284;97470;-84
2022/09/06 09:38:48;;;;;;;3.30;0.70;;;;;;;32.76;18.40;101329.87;103595;1284;138797;-83
2022/09/06 09:41:31;;;;;;;1.70;0.60;;;;;;;33.90;17.13;101325.28;103767;1284;95812;-83
2022/09/06 09:44:03;;;;;;;2.20;0.60;;;;;;;34.72;16.23;101318.48;103727;1284;96115;-84
2022/09/06 09:46:37;;;;;;;2.90;0.60;;;;;;;35.44;15.59;101321.48;103764;1284;138098;-84
2022/09/06 09:49:09;;;;;;;4.70;0.70;;;;;;;36.06;15.61;101316.65;103781;1284;97587;-84
2022/09/06 09:51:46;;;;;;;3.90;0.60;;;;;;;36.57;14.61;101314.99;103767;1283;138507;-86
2022/09/06 09:54:30;;;;;;;2.50;0.60;;;;;;;36.60;14.76;101316.80;103636;1285;95707;-85
2022/09/06 09:57:18;;;;;;;3.50;0.50;;;;;;;37.78;14.34;101307.76;103549;1285;139030;-83
2022/09/06 10:00:01;;;;;;;3.20;0.50;;;;;;;38.62;13.86;101305.89;103733;1284;108825;-86
2022/09/06 10:02:39;;;;;;;2.00;0.60;;;;;;;38.74;13.06;101300.54;103767;1284;138598;-85
2022/09/06 10:05:19;;;;;;;5.50;0.60;;;;;;;38.36;12.64;101301.38;103729;1284;108280;-85
2022/09/06 10:07:53;;;;;;;2.50;0.70;;;;;;;38.82;12.99;101290.11;103760;1284;95770;-84
2022/09/06 10:10:26;;;;;;;2.60;0.60;;;;;;;39.17;12.45;101286.83;103947;1285;138463;-85
2022/09/06 10:13:28;;;;;;;3.50;0.60;;;;;;;39.12;12.61;101282.91;104038;1284;108566;-84
2022/09/06 10:16:20;;;;;;;2.50;0.50;;;;;;;39.04;11.99;101282.34;103631;1284;138468;-84
2022/09/06 10:19:21;;;;;;;3.60;0.70;;;;;;;38.21;12.83;101286.27;103865;1285;109489;-85
2022/09/06 10:21:57;;;;;;;3.80;0.60;;;;;;;38.65;11.65;101278.23;104004;1285;137894;-85
2022/09/06 10:24:51;;;;;;;3.20;0.70;;;;;;;38.51;12.31;101275.66;104307;1284;95150;-85
2022/09/06 10:27:27;;;;;;;3.60;0.60;;;;;;;37.08;12.61;101278.41;103842;1284;139345;-84
2022/09/06 10:30:04;;;;;;;2.10;0.40;;;;;;;35.45;14.58;101278.98;103881;1284;98908;-84
2022/09/06 13:17:29;;;;;;;2.40;0.60;;;;;;;20.67;28.33;101138.77;100844;1312;634423;-75
2022/09/06 13:20:08;;;;;;;2.00;0.40;;;;;;;20.58;28.10;101145.55;103208;1289;94651;-73
2022/09/06 13:22:37;;;;;;;3.20;0.70;;;;;;;20.50;27.95;101146.89;102689;1292;138585;-73
2022/09/06 13:25:22;;;;;;;2.00;0.40;;;;;;;20.43;28.18;101146.57;102489;1291;104707;-72
2022/09/06 13:27:56;;;;;;;2.40;0.60;;;;;;;20.36;27.59;101141.73;103084;1289;137748;-73
2022/09/06 13:30:37;;;;;;;2.70;0.70;;;;;;;20.43;28.17;101139.19;102910;1280;1449788;-71
2022/09/06 13:33:06;;;;;;;2.10;0.50;;;;;;;20.44;28.46;101142.56;103908;1281;94678;-72
2022/09/06 13:35:37;;;;;;;2.40;0.70;;;;;;;20.33;27.56;101143.36;103814;1281;137747;-73
2022/09/06 13:38:29;;;;;;;3.00;0.80;;;;;;;20.26;27.58;101142.45;103820;1280;104638;-73
2022/09/06 13:41:00;;;;;;;3.00;0.60;;;;;;;20.19;27.34;101140.49;103997;1280;139846;-71
2022/09/06 13:43:46;;;;;;;3.40;0.60;;;;;;;20.13;28.03;101144.44;103994;1281;108572;-71
2022/09/06 13:46:14;;;;;;;3.00;0.60;;;;;;;20.11;28.32;101143.64;104029;1280;137570;-72
2022/09/06 13:48:43;;;;;;;3.80;0.80;;;;;;;20.12;27.79;101133.50;103913;1280;94337;-72
2022/09/06 13:51:11;;;;;;;1.70;0.60;;;;;;;20.19;27.32;101134.40;104272;1280;106172;-73
2022/09/06 13:53:39;;;;;;;3.00;0.70;;;;;;;20.16;27.26;101134.70;103840;1281;137907;-76
2022/09/06 13:56:07;;;;;;;3.80;0.70;;;;;;;20.12;28.11;101130.99;103692;1281;107974;-72
2022/09/06 13:58:35;;;;;;;2.50;0.60;;;;;;;20.11;28.69;101126.67;103740;1280;137773;-71
2022/09/06 14:01:07;;;;;;;4.60;1.00;;;;;;;20.04;29.18;101124.36;103857;1280;94340;-72
2022/09/06 14:03:39;;;;;;;3.90;0.60;;;;;;;19.97;28.86;101123.34;103834;1280;106301;-72
2022/09/06 14:06:08;;;;;;;2.20;0.50;;;;;;;19.93;28.18;101119.20;103973;1282;137885;-73
2022/09/06 14:08:38;;;;;;;2.20;0.50;;;;;;;19.86;27.66;101120.64;104067;1280;107246;-72
2022/09/06 14:11:26;;;;;;;3.10;0.50;;;;;;;19.88;27.57;101114.95;103616;1280;137374;-73
2022/09/06 14:13:54;;;;;;;1.70;0.40;;;;;;;20.01;27.56;101105.59;103561;1281;94713;-73
2022/09/06 14:16:22;;;;;;;3.10;0.70;;;;;;;20.14;27.57;101105.63;103513;1282;137218;-72
2022/09/06 14:18:50;;;;;;;3.00;0.60;;;;;;;20.18;27.90;101104.67;103954;1280;98316;-71
2022/09/06 14:21:19;;;;;;;2.70;0.60;;;;;;;20.20;28.01;101105.48;104011;1280;107677;-71
2022/09/06 14:23:51;;;;;;;2.40;0.60;;;;;;;20.19;27.47;101106.77;103596;1281;137474;-72
2022/09/06 14:26:20;;;;;;;2.70;0.50;;;;;;;20.19;27.09;101108.23;103888;1280;94323;-71
2022/09/06 14:28:49;;;;;;;2.80;0.60;;;;;;;20.22;27.71;101104.29;103504;1281;137575;-72
2022/09/06 14:31:20;;;;;;;2.10;0.50;;;;;;;20.29;27.91;101098.31;103927;1280;99468;-73
2022/09/06 14:33:48;;;;;;;2.50;0.60;;;;;;;20.19;27.74;101099.21;103842;1280;105644;-73
2022/09/06 14:36:19;;;;;;;1.40;0.50;;;;;;;20.00;27.47;101099.88;103798;1280;94872;-72
2022/09/06 14:38:48;;;;;;;2.60;0.50;;;;;;;19.94;27.20;101096.11;104029;1280;94298;-71
2022/09/06 14:41:20;;;;;;;2.60;0.60;;;;;;;19.99;27.64;101097.98;103767;1280;137752;-72
2022/09/06 14:43:53;;;;;;;2.50;0.60;;;;;;;19.98;28.12;101094.59;103819;1280;99487;-73
2022/09/06 14:46:23;;;;;;;2.80;0.60;;;;;;;19.95;27.54;101100.15;103652;1281;137461;-70
2022/09/06 14:49:04;;;;;;;2.40;0.50;;;;;;;19.90;27.36;101096.86;103863;1280;95541;-73
2022/09/06 14:51:34;;;;;;;3.90;0.60;;;;;;;19.85;27.62;101088.44;103695;1283;94808;-73
2022/09/06 14:54:11;;;;;;;3.60;0.70;;;;;;;19.87;27.58;101087.97;103629;1281;137253;-73